createdAt,value
2022-08-28T00:00:59.320Z,67.58
2022-08-28T00:01:59.323Z,67.38
2022-08-28T00:02:59.361Z,67.78
2022-08-28T00:03:59.275Z,67.58
2022-08-28T00:04:59.318Z,67.47
2022-08-28T00:05:59.244Z,67.47
2022-08-28T00:06:59.265Z,67.78
2022-08-28T00:07:59.232Z,67.88
2022-08-28T00:08:59.210Z,67.68
2022-08-28T00:09:59.214Z,67.58
2022-08-28T00:10:59.225Z,67.47
2022-08-28T00:11:59.205Z,67.68
2022-08-28T00:12:59.176Z,67.47
2022-08-28T00:13:59.189Z,67.58
2022-08-28T00:15:00.130Z,67.27
2022-08-28T00:15:59.214Z,67.18
2022-08-28T00:16:59.128Z,67.27
2022-08-28T00:17:59.111Z,67.27
2022-08-28T00:18:59.106Z,67.38
2022-08-28T00:19:59.144Z,67.27
2022-08-28T00:20:59.084Z,67.38
2022-08-28T00:21:59.073Z,67.58
2022-08-28T00:22:59.084Z,67.38
2022-08-28T00:23:59.078Z,67.58
2022-08-28T00:24:59.041Z,67.71
2022-08-28T00:25:59.043Z,67.91
2022-08-28T00:26:59.026Z,67.81
2022-08-28T00:27:59.000Z,67.71
2022-08-28T00:28:59.030Z,67.81
2022-08-28T00:29:58.985Z,68.21
2022-08-28T00:30:59.087Z,68.21
2022-08-28T00:31:58.987Z,67.91
2022-08-28T00:32:58.949Z,68.01
2022-08-28T00:33:58.940Z,67.71
2022-08-28T00:34:58.952Z,67.91
2022-08-28T00:35:58.911Z,67.81
2022-08-28T00:36:58.899Z,68.01
2022-08-28T00:37:58.901Z,68.21
2022-08-28T00:38:58.882Z,68.11
2022-08-28T00:39:59.862Z,68.01
2022-08-28T00:40:59.363Z,68.11
2022-08-28T00:41:58.847Z,68.21
2022-08-28T00:42:58.828Z,68.31
2022-08-28T00:43:58.822Z,67.91
2022-08-28T00:44:58.834Z,68.11
2022-08-28T00:45:58.798Z,68.31
2022-08-28T00:46:58.797Z,68.21
2022-08-28T00:47:58.773Z,68.41
2022-08-28T00:48:58.765Z,68.31
2022-08-28T00:49:58.768Z,68.21
2022-08-28T00:51:00.674Z,67.84
2022-08-28T00:51:58.728Z,68.15
2022-08-28T00:52:58.738Z,68.24
2022-08-28T00:53:59.381Z,68.44
2022-08-28T00:54:59.851Z,68.44
2022-08-28T00:55:58.685Z,68.65
2022-08-28T00:56:58.678Z,68.44
2022-08-28T00:57:58.661Z,68.55
2022-08-28T00:58:58.653Z,68.65
2022-08-28T00:59:58.663Z,68.65
2022-08-28T01:00:58.651Z,68.55
2022-08-28T01:01:58.691Z,68.35
2022-08-28T01:02:58.640Z,68.85
2022-08-28T01:03:58.600Z,68.88
2022-08-28T01:04:58.595Z,68.98
2022-08-28T01:05:58.585Z,69.18
2022-08-28T01:06:58.568Z,69.18
2022-08-28T01:07:58.537Z,69.38
2022-08-28T01:08:59.048Z,69.29
2022-08-28T01:09:58.515Z,69.09
2022-08-28T01:10:58.534Z,69.38
2022-08-28T01:11:58.500Z,69.29
2022-08-28T01:12:58.496Z,69.38
2022-08-28T01:13:58.490Z,69.49
2022-08-28T01:14:58.471Z,69.42
2022-08-28T01:15:58.480Z,69.82
2022-08-28T01:16:58.443Z,70.12
2022-08-28T01:17:58.456Z,70.22
2022-08-28T01:18:58.466Z,69.92
2022-08-28T01:19:58.413Z,69.82
2022-08-28T01:20:58.398Z,70.02
2022-08-28T01:21:58.427Z,69.92
2022-08-28T01:22:58.379Z,69.92
2022-08-28T01:23:58.376Z,70.02
2022-08-28T01:24:58.374Z,70.02
2022-08-28T01:25:58.355Z,70.12
2022-08-28T01:26:58.591Z,70.42
2022-08-28T01:27:58.332Z,70.22
2022-08-28T01:28:58.401Z,70.56
2022-08-28T01:29:58.295Z,70.97
2022-08-28T01:30:58.342Z,70.76
2022-08-28T01:31:58.302Z,70.66
2022-08-28T01:32:58.264Z,70.97
2022-08-28T01:33:58.243Z,71.26
2022-08-28T01:34:58.248Z,71.06
2022-08-28T01:35:58.233Z,70.76
2022-08-28T01:36:58.541Z,71.06
2022-08-28T01:37:58.236Z,71.26
2022-08-28T01:38:58.208Z,71.26
2022-08-28T01:39:58.303Z,71.37
2022-08-28T01:40:58.186Z,71.37
2022-08-28T01:41:58.163Z,71.70
2022-08-28T01:42:58.155Z,71.80
2022-08-28T01:43:58.146Z,71.80
2022-08-28T01:44:58.125Z,71.80
2022-08-28T01:45:58.187Z,71.70
2022-08-28T01:46:58.121Z,71.80
2022-08-28T01:47:58.109Z,71.80
2022-08-28T01:48:58.089Z,71.91
2022-08-28T01:49:58.085Z,72.00
2022-08-28T01:50:58.067Z,72.20
2022-08-28T01:51:58.110Z,72.11
2022-08-28T01:52:58.049Z,72.11
2022-08-28T01:53:58.039Z,71.91
2022-08-28T01:54:58.110Z,72.00
2022-08-28T01:55:58.019Z,72.11
2022-08-28T01:56:58.060Z,72.11
2022-08-28T01:57:58.022Z,72.00
2022-08-28T01:58:57.990Z,72.20
2022-08-28T01:59:57.992Z,72.00
2022-08-28T02:00:58.040Z,72.31
2022-08-28T02:01:58.054Z,72.31
2022-08-28T02:02:57.941Z,72.20
2022-08-28T02:03:57.999Z,72.20
2022-08-28T02:04:57.912Z,72.31
2022-08-28T02:05:57.909Z,72.31
2022-08-28T02:06:57.912Z,72.41
2022-08-28T02:07:57.888Z,72.61
2022-08-28T02:08:57.872Z,72.51
2022-08-28T02:09:57.906Z,72.51
2022-08-28T02:10:57.875Z,72.71
2022-08-28T02:11:57.832Z,72.51
2022-08-28T02:12:59.252Z,72.71
2022-08-28T02:13:57.795Z,72.71
2022-08-28T02:14:57.819Z,72.41
2022-08-28T02:15:57.859Z,72.81
2022-08-28T02:16:57.774Z,72.61
2022-08-28T02:17:57.781Z,72.51
2022-08-28T02:18:57.759Z,72.64
2022-08-28T02:19:57.753Z,72.64
2022-08-28T02:20:57.747Z,72.54
2022-08-28T02:21:57.755Z,72.75
2022-08-28T02:22:57.731Z,72.64
2022-08-28T02:23:57.718Z,73.05
2022-08-28T02:24:57.692Z,72.95
2022-08-28T02:25:58.629Z,72.75
2022-08-28T02:26:57.669Z,72.75
2022-08-28T02:27:57.683Z,72.85
2022-08-28T02:28:57.659Z,72.85
2022-08-28T02:29:57.632Z,72.95
2022-08-28T02:30:57.693Z,72.95
2022-08-28T02:31:57.611Z,72.54
2022-08-28T02:32:57.619Z,72.64
2022-08-28T02:33:57.594Z,72.75
2022-08-28T02:34:57.571Z,72.75
2022-08-28T02:35:57.587Z,72.95
2022-08-28T02:36:57.597Z,72.85
2022-08-28T02:37:57.532Z,72.85
2022-08-28T02:38:58.018Z,72.75
2022-08-28T02:39:57.530Z,72.95
2022-08-28T02:40:57.535Z,73.15
2022-08-28T02:41:57.500Z,73.35
2022-08-28T02:42:57.488Z,73.35
2022-08-28T02:43:57.479Z,73.05
2022-08-28T02:44:57.519Z,73.05
2022-08-28T02:45:57.515Z,73.35
2022-08-28T02:46:57.461Z,73.05
2022-08-28T02:47:57.424Z,73.05
2022-08-28T02:48:57.420Z,73.49
2022-08-28T02:49:57.407Z,73.58
2022-08-28T02:50:57.430Z,73.58
2022-08-28T02:51:57.405Z,73.65
2022-08-28T02:52:57.381Z,73.35
2022-08-28T02:53:57.356Z,73.18
2022-08-28T02:54:57.378Z,73.49
2022-08-28T02:55:57.347Z,73.49
2022-08-28T02:56:57.330Z,73.69
2022-08-28T02:57:57.333Z,73.69
2022-08-28T02:58:57.351Z,73.79
2022-08-28T02:59:57.313Z,73.69
2022-08-28T03:00:57.346Z,73.89
2022-08-28T03:01:57.300Z,73.89
2022-08-28T03:02:57.342Z,74.19
2022-08-28T03:03:57.252Z,73.89
2022-08-28T03:04:57.231Z,73.99
2022-08-28T03:05:57.229Z,74.19
2022-08-28T03:06:57.215Z,74.19
2022-08-28T03:07:57.229Z,74.40
2022-08-28T03:08:57.201Z,74.40
2022-08-28T03:09:57.213Z,74.40
2022-08-28T03:10:57.183Z,74.40
2022-08-28T03:11:57.153Z,74.40
2022-08-28T03:12:57.194Z,74.60
2022-08-28T03:13:57.132Z,74.60
2022-08-28T03:14:57.156Z,74.69
2022-08-28T03:15:57.116Z,74.29
2022-08-28T03:16:57.174Z,74.29
2022-08-28T03:17:57.119Z,74.40
2022-08-28T03:18:57.085Z,74.49
2022-08-28T03:19:57.067Z,74.49
2022-08-28T03:20:57.060Z,74.60
2022-08-28T03:21:57.046Z,74.73
2022-08-28T03:22:58.015Z,74.43
2022-08-28T03:23:57.046Z,74.33
2022-08-28T03:24:57.016Z,74.33
2022-08-28T03:25:57.017Z,74.53
2022-08-28T03:26:57.068Z,74.73
2022-08-28T03:27:57.931Z,74.73
2022-08-28T03:28:57.027Z,74.73
2022-08-28T03:29:56.955Z,74.73
2022-08-28T03:30:57.000Z,74.63
2022-08-28T03:31:56.943Z,74.87
2022-08-28T03:32:56.948Z,74.97
2022-08-28T03:33:56.918Z,74.97
2022-08-28T03:34:57.093Z,75.07
2022-08-28T03:35:56.890Z,75.17
2022-08-28T03:36:56.882Z,75.48
2022-08-28T03:37:56.867Z,75.37
2022-08-28T03:38:56.864Z,75.57
2022-08-28T03:39:56.898Z,75.81
2022-08-28T03:40:56.874Z,76.02
2022-08-28T03:41:56.835Z,76.02
2022-08-28T03:42:56.830Z,76.12
2022-08-28T03:43:56.794Z,76.12
2022-08-28T03:44:56.790Z,76.22
2022-08-28T03:45:56.841Z,76.32
2022-08-28T03:46:56.800Z,76.12
2022-08-28T03:47:57.704Z,76.22
2022-08-28T03:48:56.747Z,76.42
2022-08-28T03:49:56.727Z,76.42
2022-08-28T03:50:56.747Z,76.42
2022-08-28T03:51:56.779Z,76.52
2022-08-28T03:52:56.926Z,76.32
2022-08-28T03:53:56.687Z,76.42
2022-08-28T03:54:56.735Z,76.42
2022-08-28T03:55:56.667Z,76.42
2022-08-28T03:56:56.658Z,76.42
2022-08-28T03:57:56.710Z,76.42
2022-08-28T03:58:56.644Z,76.62
2022-08-28T03:59:56.660Z,76.42
2022-08-28T04:00:56.745Z,76.32
2022-08-28T04:01:56.597Z,76.52
2022-08-28T04:02:56.634Z,76.72
2022-08-28T04:03:56.623Z,76.72
2022-08-28T04:04:56.560Z,76.82
2022-08-28T04:05:56.555Z,76.72
2022-08-28T04:06:56.566Z,76.62
2022-08-28T04:07:56.576Z,76.76
2022-08-28T04:09:00.292Z,76.93
2022-08-28T04:09:56.539Z,77.03
2022-08-28T04:10:56.493Z,77.03
2022-08-28T04:11:56.523Z,77.03
2022-08-28T04:12:56.483Z,77.13
2022-08-28T04:13:56.462Z,77.03
2022-08-28T04:14:56.444Z,76.82
2022-08-28T04:15:56.463Z,76.93
2022-08-28T04:16:59.732Z,76.97
2022-08-28T04:17:57.425Z,77.26
2022-08-28T04:18:56.404Z,77.37
2022-08-28T04:19:56.397Z,77.17
2022-08-28T04:20:56.414Z,77.26
2022-08-28T04:21:56.365Z,77.26
2022-08-28T04:22:56.366Z,77.26
2022-08-28T04:23:56.351Z,77.17
2022-08-28T04:24:56.336Z,77.47
2022-08-28T04:25:56.332Z,77.33
2022-08-28T04:26:56.347Z,77.13
2022-08-28T04:27:56.317Z,76.93
2022-08-28T04:28:56.351Z,77.23
2022-08-28T04:29:56.278Z,77.43
2022-08-28T04:30:56.264Z,77.23
2022-08-28T04:31:56.339Z,77.23
2022-08-28T04:32:56.390Z,77.23
2022-08-28T04:33:56.228Z,77.03
2022-08-28T04:34:56.229Z,77.13
2022-08-28T04:35:56.323Z,77.13
2022-08-28T04:36:56.259Z,76.93
2022-08-28T04:37:58.838Z,77.03
2022-08-28T04:38:56.190Z,77.03
2022-08-28T04:39:56.222Z,77.03
2022-08-28T04:40:56.190Z,77.03
2022-08-28T04:41:56.142Z,77.13
2022-08-28T04:42:56.170Z,77.13
2022-08-28T04:43:56.144Z,77.23
2022-08-28T04:44:56.157Z,77.23
2022-08-28T04:45:56.278Z,77.03
2022-08-28T04:46:56.351Z,77.03
2022-08-28T04:47:56.073Z,77.17
2022-08-28T04:48:56.094Z,77.17
2022-08-28T04:49:56.084Z,77.26
2022-08-28T04:50:56.068Z,77.26
2022-08-28T04:51:56.057Z,77.26
2022-08-28T04:52:56.080Z,77.17
2022-08-28T04:53:56.062Z,77.17
2022-08-28T04:54:56.024Z,77.26
2022-08-28T04:55:55.994Z,77.37
2022-08-28T04:56:56.089Z,77.47
2022-08-28T04:57:55.974Z,77.47
2022-08-28T04:58:55.952Z,77.57
2022-08-28T04:59:55.977Z,77.47
2022-08-28T05:00:55.974Z,77.57
2022-08-28T05:01:55.969Z,77.57
2022-08-28T05:02:55.946Z,77.67
2022-08-28T05:03:55.912Z,77.87
2022-08-28T05:04:55.882Z,77.97
2022-08-28T05:05:55.880Z,77.87
2022-08-28T05:06:55.970Z,77.97
2022-08-28T05:07:55.929Z,77.77
2022-08-28T05:08:55.836Z,77.87
2022-08-28T05:09:55.829Z,78.08
2022-08-28T05:10:55.852Z,78.17
2022-08-28T05:11:55.846Z,78.17
2022-08-28T05:12:55.925Z,77.97
2022-08-28T05:13:55.820Z,78.17
2022-08-28T05:14:55.780Z,78.17
2022-08-28T05:15:55.938Z,78.28
2022-08-28T05:16:55.857Z,78.17
2022-08-28T05:17:55.759Z,78.38
2022-08-28T05:18:55.729Z,78.28
2022-08-28T05:19:55.743Z,78.28
2022-08-28T05:20:55.716Z,78.17
2022-08-28T05:21:55.975Z,78.28
2022-08-28T05:22:55.683Z,78.17
2022-08-28T05:23:55.692Z,78.08
2022-08-28T05:24:55.664Z,78.17
2022-08-28T05:25:55.704Z,78.17
2022-08-28T05:26:55.654Z,78.17
2022-08-28T05:27:55.630Z,78.17
2022-08-28T05:28:55.677Z,78.17
2022-08-28T05:29:59.840Z,78.17
2022-08-28T05:30:56.620Z,78.28
2022-08-28T05:31:55.629Z,78.28
2022-08-28T05:32:55.566Z,78.17
2022-08-28T05:33:55.579Z,78.17
2022-08-28T05:34:55.581Z,78.08
2022-08-28T05:35:55.541Z,78.08
2022-08-28T05:36:55.537Z,78.17
2022-08-28T05:37:55.537Z,78.17
2022-08-28T05:38:55.503Z,78.28
2022-08-28T05:39:55.519Z,78.38
2022-08-28T05:40:55.479Z,78.28
2022-08-28T05:41:55.528Z,78.17
2022-08-28T05:42:55.451Z,78.17
2022-08-28T05:43:55.462Z,78.17
2022-08-28T05:44:55.442Z,78.08
2022-08-28T05:45:55.460Z,77.87
2022-08-28T05:46:55.485Z,77.87
2022-08-28T05:47:55.445Z,78.08
2022-08-28T05:48:55.423Z,78.17
2022-08-28T05:49:55.386Z,78.28
2022-08-28T05:50:55.471Z,78.17
2022-08-28T05:51:55.404Z,78.17
2022-08-28T05:52:55.468Z,78.17
2022-08-28T05:53:55.336Z,78.08
2022-08-28T05:54:55.332Z,77.87
2022-08-28T05:55:55.350Z,77.87
2022-08-28T05:56:55.417Z,78.08
2022-08-28T05:57:55.296Z,78.17
2022-08-28T05:58:55.299Z,78.08
2022-08-28T05:59:55.284Z,77.94
2022-08-28T06:00:55.263Z,77.64
2022-08-28T06:01:55.319Z,77.73
2022-08-28T06:02:55.264Z,77.73
2022-08-28T06:03:55.381Z,77.64
2022-08-28T06:04:55.242Z,77.43
2022-08-28T06:05:55.239Z,77.43
2022-08-28T06:06:55.191Z,77.43
2022-08-28T06:07:55.409Z,77.33
2022-08-28T06:08:58.259Z,77.23
2022-08-28T06:09:55.180Z,77.23
2022-08-28T06:10:55.172Z,77.23
2022-08-28T06:11:55.143Z,77.23
2022-08-28T06:12:55.154Z,77.13
2022-08-28T06:13:55.162Z,76.93
2022-08-28T06:14:55.133Z,76.93
2022-08-28T06:15:55.148Z,77.03
2022-08-28T06:16:55.113Z,76.93
2022-08-28T06:17:55.084Z,77.03
2022-08-28T06:18:55.064Z,77.13
2022-08-28T06:19:55.299Z,77.13
2022-08-28T06:20:55.035Z,77.23
2022-08-28T06:21:55.053Z,77.29
2022-08-28T06:22:55.029Z,77.29
2022-08-28T06:23:55.115Z,77.09
2022-08-28T06:24:55.114Z,76.99
2022-08-28T06:25:54.987Z,77.09
2022-08-28T06:26:58.046Z,77.09
2022-08-28T06:27:55.045Z,76.89
2022-08-28T06:28:54.973Z,76.69
2022-08-28T06:29:54.945Z,76.65
2022-08-28T06:31:18.376Z,76.35
2022-08-28T06:31:55.986Z,76.25
2022-08-28T06:32:54.936Z,76.15
2022-08-28T06:33:54.889Z,76.15
2022-08-28T06:34:54.879Z,76.04
2022-08-28T06:35:54.897Z,75.95
2022-08-28T06:36:54.869Z,75.95
2022-08-28T06:37:54.932Z,76.04
2022-08-28T06:38:54.833Z,76.25
2022-08-28T06:39:54.853Z,76.04
2022-08-28T06:40:54.889Z,76.04
2022-08-28T06:41:54.798Z,75.95
2022-08-28T06:42:54.791Z,75.84
2022-08-28T06:43:54.781Z,75.95
2022-08-28T06:44:54.818Z,75.95
2022-08-28T06:45:55.529Z,75.95
2022-08-28T06:46:54.805Z,76.15
2022-08-28T06:47:54.749Z,75.95
2022-08-28T06:48:54.717Z,75.74
2022-08-28T06:49:54.746Z,75.74
2022-08-28T06:50:54.690Z,75.84
2022-08-28T06:51:54.690Z,76.15
2022-08-28T06:52:54.674Z,76.15
2022-08-28T06:53:54.661Z,76.11
2022-08-28T06:54:55.599Z,76.62
2022-08-28T06:55:54.650Z,76.31
2022-08-28T06:56:54.651Z,76.31
2022-08-28T06:57:54.624Z,76.62
2022-08-28T06:58:54.623Z,76.58
2022-08-28T06:59:54.605Z,75.87
2022-08-28T07:01:02.280Z,76.07
2022-08-28T07:01:55.745Z,75.77
2022-08-28T07:02:54.613Z,75.03
2022-08-28T07:03:54.563Z,74.93
2022-08-28T07:04:54.555Z,74.43
2022-08-28T07:05:54.539Z,73.82
2022-08-28T07:06:55.042Z,73.88
2022-08-28T07:07:54.496Z,74.08
2022-08-28T07:08:54.505Z,73.68
2022-08-28T07:09:54.510Z,73.18
2022-08-28T07:10:54.510Z,73.08
2022-08-28T07:11:54.459Z,72.78
2022-08-28T07:12:54.467Z,72.54
2022-08-28T07:13:54.461Z,72.44
2022-08-28T07:14:54.423Z,72.14
2022-08-28T07:15:54.456Z,71.94
2022-08-28T07:16:54.401Z,71.84
2022-08-28T07:17:54.420Z,72.24
2022-08-28T07:18:54.372Z,72.14
2022-08-28T07:19:54.383Z,71.40
2022-08-28T07:20:54.359Z,71.00
2022-08-28T07:21:54.350Z,71.30
2022-08-28T07:22:59.439Z,71.40
2022-08-28T07:23:55.328Z,70.79
2022-08-28T07:24:54.335Z,70.96
2022-08-28T07:25:54.302Z,70.66
2022-08-28T07:26:54.286Z,70.46
2022-08-28T07:27:54.284Z,69.72
2022-08-28T07:29:09.492Z,69.12
2022-08-28T07:29:55.285Z,68.82
2022-08-28T07:30:54.260Z,68.82
2022-08-28T07:31:54.256Z,68.71
2022-08-28T07:32:54.232Z,68.68
2022-08-28T07:33:54.346Z,68.78
2022-08-28T07:34:54.253Z,68.59
2022-08-28T07:35:54.218Z,68.38
2022-08-28T07:36:54.170Z,68.18
2022-08-28T07:37:54.190Z,67.98
2022-08-28T07:38:54.151Z,67.88
2022-08-28T07:39:54.224Z,67.98
2022-08-28T07:40:54.139Z,67.88
2022-08-28T07:41:54.136Z,67.68
2022-08-28T07:42:54.121Z,67.74
2022-08-28T07:43:54.109Z,67.74
2022-08-28T07:44:54.117Z,67.74
2022-08-28T07:45:54.110Z,67.55
2022-08-28T07:46:54.139Z,68.15
2022-08-28T07:47:54.087Z,67.55
2022-08-28T07:48:54.049Z,67.24
2022-08-28T07:49:54.053Z,67.65
2022-08-28T07:50:54.031Z,67.74
2022-08-28T07:51:54.569Z,67.68
2022-08-28T07:52:54.018Z,67.68
2022-08-28T07:53:54.009Z,67.47
2022-08-28T07:54:54.033Z,67.58
2022-08-28T07:55:54.033Z,67.47
2022-08-28T07:56:53.993Z,67.58
2022-08-28T07:57:53.961Z,67.41
2022-08-28T07:58:53.949Z,67.81
2022-08-28T07:59:53.920Z,67.68
2022-08-28T08:00:53.913Z,67.88
2022-08-28T08:01:54.001Z,68.28
2022-08-28T08:02:53.928Z,68.38
2022-08-28T08:03:57.715Z,67.88
2022-08-28T08:04:54.914Z,67.88
2022-08-28T08:05:53.868Z,67.78
2022-08-28T08:06:57.837Z,67.27
2022-08-28T08:07:53.875Z,67.41
2022-08-28T08:08:53.825Z,67.31
2022-08-28T08:09:53.809Z,67.31
2022-08-28T08:10:53.788Z,67.47
2022-08-28T08:11:53.798Z,67.27
2022-08-28T08:12:53.814Z,67.07
2022-08-28T08:13:53.758Z,67.18
2022-08-28T08:14:53.776Z,67.27
2022-08-28T08:15:53.838Z,66.87
2022-08-28T08:16:53.769Z,67.38
2022-08-28T08:17:53.763Z,67.07
2022-08-28T08:18:53.698Z,66.97
2022-08-28T08:19:53.698Z,67.07
2022-08-28T08:20:53.678Z,66.77
2022-08-28T08:21:55.106Z,66.77
2022-08-28T08:22:53.689Z,66.74
2022-08-28T08:23:53.659Z,66.54
2022-08-28T08:24:53.708Z,66.34
2022-08-28T08:25:53.633Z,66.24
2022-08-28T08:27:00.366Z,65.94
2022-08-28T08:27:54.653Z,65.64
2022-08-28T08:28:53.598Z,65.44
2022-08-28T08:29:53.617Z,65.64
2022-08-28T08:30:53.627Z,65.73
2022-08-28T08:31:53.579Z,65.33
2022-08-28T08:32:53.548Z,65.56
2022-08-28T08:33:53.623Z,65.36
2022-08-28T08:34:53.543Z,65.87
2022-08-28T08:35:53.526Z,65.67
2022-08-28T08:36:53.505Z,65.67
2022-08-28T08:37:53.500Z,65.97
2022-08-28T08:38:59.467Z,66.37
2022-08-28T08:39:54.539Z,66.37
2022-08-28T08:40:53.465Z,66.07
2022-08-28T08:41:53.482Z,65.97
2022-08-28T08:42:53.439Z,65.97
2022-08-28T08:43:53.437Z,66.27
2022-08-28T08:44:53.433Z,66.27
2022-08-28T08:45:53.469Z,66.07
2022-08-28T08:46:53.390Z,65.73
2022-08-28T08:47:53.402Z,65.33
2022-08-28T08:48:54.359Z,65.23
2022-08-28T08:49:53.351Z,65.33
2022-08-28T08:50:53.353Z,65.13
2022-08-28T08:51:53.372Z,65.33
2022-08-28T08:52:53.396Z,65.23
2022-08-28T08:53:53.341Z,65.00
2022-08-28T08:54:56.435Z,65.41
2022-08-28T08:55:54.337Z,65.20
2022-08-28T08:56:53.324Z,64.60
2022-08-28T08:57:53.280Z,64.60
2022-08-28T08:58:53.260Z,65.20
2022-08-28T08:59:53.310Z,64.97
2022-08-28T09:00:53.241Z,64.47
2022-08-28T09:01:53.359Z,64.17
2022-08-28T09:02:53.235Z,64.24
2022-08-28T09:03:53.836Z,63.43
2022-08-28T09:04:53.223Z,62.63
2022-08-28T09:05:53.181Z,62.73
2022-08-28T09:06:53.181Z,62.73
2022-08-28T09:07:53.373Z,62.70
2022-08-28T09:08:53.157Z,63.00
2022-08-28T09:09:53.159Z,62.60
2022-08-28T09:10:53.149Z,62.20
2022-08-28T09:11:57.109Z,62.00
2022-08-28T09:12:53.097Z,62.37
2022-08-28T09:13:53.130Z,62.37
2022-08-28T09:14:53.088Z,61.97
2022-08-28T09:15:53.134Z,61.67
2022-08-28T09:16:53.069Z,60.94
2022-08-28T09:17:53.055Z,60.24
2022-08-28T09:18:53.040Z,60.64
2022-08-28T09:19:53.039Z,60.24
2022-08-28T09:20:53.009Z,60.33
2022-08-28T09:21:53.008Z,60.33
2022-08-28T09:22:53.010Z,59.53
2022-08-28T09:23:53.019Z,59.33
2022-08-28T09:24:52.981Z,59.74
2022-08-28T09:25:52.958Z,60.03
2022-08-28T09:26:52.985Z,60.01
2022-08-28T09:27:52.955Z,59.41
2022-08-28T09:28:52.972Z,59.61
2022-08-28T09:29:52.965Z,59.20
2022-08-28T09:30:52.926Z,59.41
2022-08-28T09:31:52.922Z,59.41
2022-08-28T09:32:52.872Z,59.41
2022-08-28T09:33:52.888Z,59.20
2022-08-28T09:34:52.855Z,58.81
2022-08-28T09:35:52.863Z,58.78
2022-08-28T09:36:52.837Z,59.08
2022-08-28T09:37:52.824Z,59.18
2022-08-28T09:38:52.827Z,59.18
2022-08-28T09:39:52.889Z,58.37
2022-08-28T09:40:52.797Z,58.25
2022-08-28T09:41:52.850Z,57.85
2022-08-28T09:42:52.770Z,57.75
2022-08-28T09:43:52.746Z,57.55
2022-08-28T09:44:52.739Z,57.68
2022-08-28T09:45:52.805Z,58.18
2022-08-28T09:46:52.738Z,58.28
2022-08-28T09:47:52.713Z,58.37
2022-08-28T09:48:52.693Z,57.98
2022-08-28T09:49:52.694Z,58.18
2022-08-28T09:50:52.699Z,57.98
2022-08-28T09:51:52.665Z,57.98
2022-08-28T09:52:52.658Z,58.28
2022-08-28T09:53:52.655Z,57.98
2022-08-28T09:54:52.631Z,56.95
2022-08-28T09:55:52.645Z,57.24
2022-08-28T09:56:52.642Z,58.15
2022-08-28T09:57:52.591Z,58.35
2022-08-28T09:58:52.610Z,59.05
2022-08-28T09:59:52.574Z,58.05
2022-08-28T10:00:52.577Z,58.55
2022-08-28T10:01:52.643Z,57.75
2022-08-28T10:02:52.538Z,57.82
2022-08-28T10:03:52.578Z,57.42
2022-08-28T10:04:52.533Z,57.12
2022-08-28T10:05:52.551Z,57.22
2022-08-28T10:06:52.516Z,57.22
2022-08-28T10:07:52.525Z,57.02
2022-08-28T10:08:52.486Z,56.92
2022-08-28T10:09:52.478Z,56.72
2022-08-28T10:10:52.460Z,57.52
2022-08-28T10:11:52.515Z,57.92
2022-08-28T10:12:52.437Z,57.50
2022-08-28T10:13:52.436Z,57.09
2022-08-28T10:14:52.427Z,57.09
2022-08-28T10:15:52.451Z,57.09
2022-08-28T10:16:52.405Z,57.09
2022-08-28T10:17:52.430Z,56.59
2022-08-28T10:18:52.380Z,55.89
2022-08-28T10:19:52.346Z,56.59
2022-08-28T10:20:52.379Z,56.27
2022-08-28T10:21:52.331Z,56.37
2022-08-28T10:22:52.334Z,56.16
2022-08-28T10:23:52.377Z,55.77
2022-08-28T10:24:52.293Z,55.77
2022-08-28T10:25:52.317Z,56.74
2022-08-28T10:26:52.277Z,55.84
2022-08-28T10:27:52.259Z,55.44
2022-08-28T10:28:52.243Z,55.51
2022-08-28T10:29:52.427Z,54.91
2022-08-28T10:30:52.259Z,55.11
2022-08-28T10:31:52.203Z,54.89
2022-08-28T10:32:52.198Z,54.49
2022-08-28T10:33:52.197Z,54.49
2022-08-28T10:34:52.188Z,54.16
2022-08-28T10:35:52.205Z,53.17
2022-08-28T10:36:52.159Z,53.27
2022-08-28T10:37:52.177Z,54.06
2022-08-28T10:38:53.246Z,54.27
2022-08-28T10:39:52.246Z,53.47
2022-08-28T10:40:52.151Z,53.06
2022-08-28T10:41:52.118Z,53.06
2022-08-28T10:42:52.099Z,53.86
2022-08-28T10:43:52.088Z,53.96
2022-08-28T10:44:52.074Z,54.16
2022-08-28T10:45:52.136Z,54.04
2022-08-28T10:46:52.123Z,53.14
2022-08-28T10:47:52.072Z,52.84
2022-08-28T10:48:52.036Z,52.64
2022-08-28T10:49:52.035Z,52.55
2022-08-28T10:50:52.000Z,52.32
2022-08-28T10:51:51.994Z,52.12
2022-08-28T10:52:52.011Z,51.82
2022-08-28T10:53:51.987Z,52.72
2022-08-28T10:54:51.961Z,52.42
2022-08-28T10:55:51.943Z,52.42
2022-08-28T10:56:56.597Z,52.72
2022-08-28T10:57:51.917Z,51.82
2022-08-28T10:58:51.939Z,52.12
2022-08-28T10:59:51.903Z,52.42
2022-08-28T11:00:51.924Z,52.51
2022-08-28T11:01:51.944Z,52.29
2022-08-28T11:02:51.956Z,51.40
2022-08-28T11:03:51.880Z,51.79
2022-08-28T11:04:54.287Z,52.49
2022-08-28T11:05:53.874Z,50.98
2022-08-28T11:06:51.824Z,50.08
2022-08-28T11:07:51.818Z,50.08
2022-08-28T11:08:51.810Z,51.47
2022-08-28T11:09:51.809Z,51.37
2022-08-28T11:10:51.852Z,51.27
2022-08-28T11:11:51.771Z,51.65
2022-08-28T11:12:51.774Z,50.35
2022-08-28T11:13:51.753Z,50.45
2022-08-28T11:14:51.745Z,50.45
2022-08-28T11:15:51.712Z,50.35
2022-08-28T11:16:51.793Z,50.95
2022-08-28T11:17:51.727Z,51.05
2022-08-28T11:18:51.704Z,50.85
2022-08-28T11:19:52.506Z,50.75
2022-08-28T11:20:51.672Z,50.75
2022-08-28T11:21:51.682Z,50.55
2022-08-28T11:22:51.674Z,50.33
2022-08-28T11:23:51.658Z,50.82
2022-08-28T11:24:51.655Z,50.63
2022-08-28T11:25:51.624Z,49.04
2022-08-28T11:26:51.623Z,48.64
2022-08-28T11:27:51.625Z,48.26
2022-08-28T11:28:51.584Z,49.18
2022-08-28T11:29:51.598Z,50.27
2022-08-28T11:30:51.623Z,50.27
2022-08-28T11:31:51.565Z,50.68
2022-08-28T11:32:51.578Z,50.78
2022-08-28T11:33:51.540Z,50.18
2022-08-28T11:34:51.524Z,50.08
2022-08-28T11:35:51.552Z,49.60
2022-08-28T11:36:51.520Z,50.60
2022-08-28T11:37:51.515Z,50.50
2022-08-28T11:38:51.477Z,50.60
2022-08-28T11:39:51.460Z,50.87
2022-08-28T11:40:51.449Z,50.98
2022-08-28T11:41:51.489Z,50.57
2022-08-28T11:42:51.430Z,50.48
2022-08-28T11:43:51.441Z,50.55
2022-08-28T11:44:51.407Z,50.65
2022-08-28T11:45:51.462Z,50.45
2022-08-28T11:46:51.415Z,50.25
2022-08-28T11:47:51.374Z,49.53
2022-08-28T11:48:51.393Z,49.83
2022-08-28T11:49:51.382Z,49.93
2022-08-28T11:50:51.344Z,49.73
2022-08-28T11:51:51.334Z,50.13
2022-08-28T11:52:51.323Z,50.01
2022-08-28T11:53:51.316Z,49.41
2022-08-28T11:54:51.335Z,49.11
2022-08-28T11:55:51.291Z,48.71
2022-08-28T11:56:51.275Z,48.61
2022-08-28T11:57:51.286Z,48.64
2022-08-28T11:58:51.300Z,48.24
2022-08-28T11:59:51.241Z,48.64
2022-08-28T12:00:51.257Z,47.64
2022-08-28T12:01:51.279Z,48.44
2022-08-28T12:02:51.298Z,49.13
2022-08-28T12:03:51.231Z,48.14
2022-08-28T12:04:51.254Z,48.74
2022-08-28T12:05:51.161Z,48.83
2022-08-28T12:06:51.183Z,50.03
2022-08-28T12:07:51.179Z,50.23
2022-08-28T12:08:51.140Z,50.01
2022-08-28T12:09:51.165Z,49.31
2022-08-28T12:10:51.127Z,48.81
2022-08-28T12:11:51.120Z,48.22
2022-08-28T12:12:51.134Z,48.02
2022-08-28T12:13:51.083Z,48.02
2022-08-28T12:14:51.112Z,47.32
2022-08-28T12:15:51.300Z,47.22
2022-08-28T12:16:51.059Z,48.02
2022-08-28T12:17:51.117Z,48.71
2022-08-28T12:18:51.086Z,48.11
2022-08-28T12:19:55.343Z,48.41
2022-08-28T12:20:52.011Z,48.41
2022-08-28T12:21:51.033Z,48.52
2022-08-28T12:22:50.994Z,47.82
2022-08-28T12:23:51.035Z,47.50
2022-08-28T12:24:50.965Z,47.20
2022-08-28T12:25:50.960Z,47.99
2022-08-28T12:26:50.990Z,47.77
2022-08-28T12:27:50.941Z,48.17
2022-08-28T12:28:50.935Z,47.16
2022-08-28T12:29:50.955Z,46.06
2022-08-28T12:30:50.993Z,45.76
2022-08-28T12:31:50.891Z,46.14
2022-08-28T12:32:50.882Z,46.61
2022-08-28T12:33:50.890Z,46.00
2022-08-28T12:34:50.886Z,44.90
2022-08-28T12:35:50.864Z,43.89
2022-08-28T12:36:52.152Z,43.28
2022-08-28T12:37:51.856Z,43.35
2022-08-28T12:38:50.857Z,43.63
2022-08-28T12:39:50.829Z,43.80
2022-08-28T12:40:50.841Z,41.71
2022-08-28T12:41:50.764Z,41.79
2022-08-28T12:42:54.544Z,41.69
2022-08-28T12:43:50.766Z,41.17
2022-08-28T12:44:50.813Z,40.94
2022-08-28T12:45:50.815Z,40.45
2022-08-28T12:46:50.735Z,40.53
2022-08-28T12:47:50.718Z,39.73
2022-08-28T12:48:50.733Z,40.13
2022-08-28T12:49:50.710Z,39.44
2022-08-28T12:50:50.722Z,39.81
2022-08-28T12:51:50.680Z,40.09
2022-08-28T12:52:50.670Z,39.28